createdAt,value
2022-10-07T00:00:19.673Z,3.65
2022-10-07T00:02:51.613Z,3.83
2022-10-07T00:05:23.636Z,4.65
2022-10-07T00:07:55.894Z,4.57
2022-10-07T00:10:28.009Z,4.65
2022-10-07T00:13:01.511Z,3.75
2022-10-07T00:15:33.678Z,6.03
2022-10-07T00:18:05.812Z,4.47
2022-10-07T00:20:39.736Z,4.45
2022-10-07T00:23:11.774Z,5.47
2022-10-07T00:25:43.733Z,6.22
2022-10-07T00:28:15.733Z,4.85
2022-10-07T00:30:47.808Z,4.82
2022-10-07T00:33:19.826Z,4.13
2022-10-07T00:35:51.757Z,5.68
2022-10-07T00:38:23.796Z,3.85
2022-10-07T00:40:55.770Z,4.28
2022-10-07T00:43:31.396Z,6.15
2022-10-07T00:46:21.621Z,4.78
2022-10-07T00:48:54.740Z,4.70
2022-10-07T00:51:27.129Z,4.20
2022-10-07T00:53:59.592Z,4.53
2022-10-07T00:56:32.057Z,4.40
2022-10-07T00:59:05.662Z,4.07
2022-10-07T01:01:38.207Z,4.18
2022-10-07T01:04:12.773Z,4.72
2022-10-07T01:06:45.889Z,4.20
2022-10-07T01:09:20.997Z,4.28
2022-10-07T01:12:14.870Z,3.90
2022-10-07T01:14:55.539Z,3.80
2022-10-07T01:17:36.310Z,3.75
2022-10-07T01:21:08.310Z,4.55
2022-10-07T01:24:09.928Z,3.50
2022-10-07T01:27:14.466Z,3.45
2022-10-07T01:30:08.038Z,3.75
2022-10-07T01:32:55.088Z,4.07
2022-10-07T01:35:33.990Z,3.30
2022-10-07T01:38:09.831Z,3.72
2022-10-07T01:40:57.775Z,3.65
2022-10-07T01:43:30.811Z,2.97
2022-10-07T01:46:03.902Z,3.60
2022-10-07T01:48:35.902Z,3.13
2022-10-07T01:51:09.437Z,4.13
2022-10-07T01:53:55.175Z,4.63
2022-10-07T01:56:55.682Z,3.78
2022-10-07T02:02:46.318Z,3.67
2022-10-07T02:05:34.461Z,3.00
2022-10-07T02:08:26.757Z,3.20
2022-10-07T02:11:27.614Z,4.32
2022-10-07T02:14:14.759Z,2.63
2022-10-07T02:16:47.269Z,2.55
2022-10-07T02:19:29.071Z,2.65
2022-10-07T02:22:04.873Z,2.90
2022-10-07T02:24:39.528Z,2.65
2022-10-07T02:27:16.703Z,2.90
2022-10-07T02:29:53.576Z,3.28
2022-10-07T02:32:27.777Z,3.20
2022-10-07T02:35:06.019Z,3.83
2022-10-07T02:37:39.674Z,2.67
2022-10-07T02:40:12.612Z,2.63
2022-10-07T02:42:58.847Z,2.80
2022-10-07T02:45:50.508Z,3.85
2022-10-07T02:48:48.618Z,2.70
2022-10-07T02:51:27.201Z,2.38
2022-10-07T02:54:03.229Z,2.47
2022-10-07T02:56:37.969Z,3.42
2022-10-07T02:59:13.022Z,3.15
2022-10-07T03:01:49.182Z,2.63
2022-10-07T03:04:23.036Z,2.30
2022-10-07T03:06:55.730Z,3.33
2022-10-07T03:09:29.261Z,2.72
2022-10-07T03:12:01.208Z,2.58
2022-10-07T03:14:35.910Z,2.92
2022-10-07T03:17:07.826Z,2.30
2022-10-07T03:19:40.544Z,3.33
2022-10-07T03:22:12.633Z,3.13
2022-10-07T03:24:44.573Z,3.10
2022-10-07T03:27:16.495Z,2.78
2022-10-07T03:29:48.989Z,3.00
2022-10-07T03:32:20.880Z,3.20
2022-10-07T03:34:54.386Z,2.83
2022-10-07T03:37:26.763Z,3.13
2022-10-07T03:39:58.685Z,3.42
2022-10-07T03:42:30.635Z,3.17
2022-10-07T03:45:02.529Z,3.05
2022-10-07T03:47:34.416Z,2.90
2022-10-07T03:50:06.814Z,3.45
2022-10-07T03:52:38.730Z,2.60
2022-10-07T03:55:10.626Z,3.22
2022-10-07T03:57:55.635Z,2.83
2022-10-07T04:00:30.445Z,3.33
2022-10-07T04:03:02.451Z,2.83
2022-10-07T04:05:38.114Z,2.85
2022-10-07T04:08:12.099Z,2.75
2022-10-07T04:10:44.034Z,3.22
2022-10-07T04:13:15.936Z,2.72
2022-10-07T04:15:49.064Z,3.40
2022-10-07T04:18:21.978Z,3.25
2022-10-07T04:20:53.953Z,3.30
2022-10-07T04:23:25.906Z,3.38
2022-10-07T04:25:57.810Z,3.55
2022-10-07T04:28:29.870Z,9.60
2022-10-07T04:31:05.558Z,4.55
2022-10-07T04:33:42.097Z,4.05
2022-10-07T04:36:14.278Z,3.58
2022-10-07T04:38:50.492Z,3.90
2022-10-07T04:41:22.483Z,3.92
2022-10-07T04:43:57.818Z,3.60
2022-10-07T04:46:30.133Z,3.30
2022-10-07T04:49:02.156Z,3.67
2022-10-07T04:51:34.140Z,5.30
2022-10-07T04:54:06.882Z,3.95
2022-10-07T04:56:38.914Z,3.25
2022-10-07T04:59:11.394Z,3.97
2022-10-07T05:01:43.360Z,4.25
2022-10-07T05:04:15.275Z,3.75
2022-10-07T05:06:47.254Z,4.45
2022-10-07T05:09:19.133Z,3.85
2022-10-07T05:11:55.794Z,3.38
2022-10-07T05:14:27.770Z,3.83
2022-10-07T05:16:59.829Z,3.78
2022-10-07T05:19:31.722Z,4.07
2022-10-07T05:22:03.895Z,3.60
2022-10-07T05:24:35.878Z,4.65
2022-10-07T05:27:07.858Z,4.50
2022-10-07T05:29:40.419Z,4.40
2022-10-07T05:32:12.453Z,4.55
2022-10-07T05:34:45.093Z,4.38
2022-10-07T05:37:17.046Z,4.57
2022-10-07T05:39:48.928Z,5.07
2022-10-07T05:42:20.960Z,4.85
2022-10-07T05:44:52.845Z,4.95
2022-10-07T05:47:24.896Z,5.03
2022-10-07T05:49:58.844Z,4.07
2022-10-07T05:52:30.884Z,4.75
2022-10-07T05:55:03.045Z,3.97
2022-10-07T05:57:34.966Z,4.45
2022-10-07T06:00:08.091Z,4.38
2022-10-07T06:02:40.136Z,4.18
2022-10-07T06:05:12.132Z,5.22
2022-10-07T06:07:44.350Z,5.72
2022-10-07T06:10:35.134Z,5.03
2022-10-07T06:13:09.823Z,4.25
2022-10-07T06:15:41.716Z,4.45
2022-10-07T06:18:13.719Z,4.15
2022-10-07T06:21:01.602Z,4.80
2022-10-07T06:23:34.709Z,4.13
2022-10-07T06:26:15.021Z,4.13
2022-10-07T06:28:47.304Z,3.92
2022-10-07T06:31:25.713Z,3.83
2022-10-07T06:33:57.678Z,3.90
2022-10-07T06:36:29.565Z,4.00
2022-10-07T06:39:01.975Z,4.25
2022-10-07T06:41:34.223Z,4.13
2022-10-07T06:44:06.292Z,4.07
2022-10-07T06:46:38.212Z,3.65
2022-10-07T06:49:10.446Z,4.07
2022-10-07T06:51:42.411Z,3.83
2022-10-07T06:54:14.354Z,3.85
2022-10-07T06:56:46.286Z,3.83
2022-10-07T06:59:18.208Z,3.40
2022-10-07T07:01:50.214Z,3.75
2022-10-07T07:04:22.123Z,3.55
2022-10-07T07:06:54.034Z,3.83
2022-10-07T07:09:26.024Z,3.75
2022-10-07T07:11:58.522Z,3.38
2022-10-07T07:14:30.521Z,3.85
2022-10-07T07:17:02.678Z,3.33
2022-10-07T07:19:34.668Z,4.00
2022-10-07T07:22:08.257Z,3.72
2022-10-07T07:24:40.255Z,4.35
2022-10-07T07:27:14.518Z,3.67
2022-10-07T07:29:47.182Z,3.17
2022-10-07T07:32:19.161Z,3.83
2022-10-07T07:37:43.672Z,4.82
2022-10-07T07:40:16.399Z,3.10
2022-10-07T07:42:49.334Z,4.15
2022-10-07T07:45:21.650Z,3.20
2022-10-07T07:47:53.539Z,4.10
2022-10-07T07:50:27.448Z,3.55
2022-10-07T07:53:02.049Z,3.85
2022-10-07T07:55:34.021Z,2.75
2022-10-07T07:58:11.678Z,3.97
2022-10-07T08:00:44.026Z,3.35
2022-10-07T08:03:16.000Z,3.28
2022-10-07T08:05:50.731Z,2.95
2022-10-07T08:08:22.690Z,2.95
2022-10-07T08:10:54.639Z,2.90
2022-10-07T08:13:26.512Z,3.45
2022-10-07T08:15:59.938Z,3.08
2022-10-07T08:18:32.537Z,2.92
2022-10-07T08:21:06.227Z,3.10
2022-10-07T08:23:39.988Z,3.38
2022-10-07T08:26:11.980Z,3.50
2022-10-07T08:28:44.037Z,2.78
2022-10-07T08:31:18.690Z,2.85
2022-10-07T08:33:50.771Z,3.22
2022-10-07T08:36:25.308Z,3.30
2022-10-07T08:38:57.454Z,3.63
2022-10-07T08:41:54.050Z,3.58
2022-10-07T08:44:36.120Z,3.10
2022-10-07T08:47:28.019Z,2.97
2022-10-07T08:50:08.376Z,2.63
2022-10-07T08:55:52.046Z,2.58
2022-10-07T08:58:35.758Z,2.88
2022-10-07T09:01:22.684Z,2.95
2022-10-07T09:04:18.656Z,2.70
2022-10-07T09:07:18.925Z,3.00
2022-10-07T09:10:00.534Z,2.80
2022-10-07T09:12:51.100Z,3.08
2022-10-07T09:16:04.159Z,2.85
2022-10-07T09:18:54.163Z,3.20
2022-10-07T09:21:50.101Z,2.33
2022-10-07T09:24:28.429Z,2.78
2022-10-07T09:27:09.144Z,2.97
2022-10-07T09:29:41.175Z,4.85
2022-10-07T09:32:17.429Z,3.35
2022-10-07T09:34:49.369Z,2.97
2022-10-07T09:37:27.749Z,3.00
2022-10-07T09:41:00.372Z,2.80
2022-10-07T09:43:34.040Z,2.55
2022-10-07T09:46:06.071Z,2.70
2022-10-07T09:48:52.877Z,2.55
2022-10-07T09:51:27.150Z,3.55
2022-10-07T09:54:03.758Z,2.15
2022-10-07T09:56:43.875Z,2.33
2022-10-07T09:59:29.411Z,2.58
2022-10-07T10:02:13.397Z,2.65
2022-10-07T10:04:55.882Z,3.20
2022-10-07T10:07:36.118Z,3.00
2022-10-07T10:10:30.809Z,3.15
2022-10-07T10:13:06.325Z,3.05
2022-10-07T10:15:42.392Z,2.35
2022-10-07T10:18:33.559Z,2.47
2022-10-07T10:21:32.584Z,2.20
2022-10-07T10:24:14.574Z,1.95
2022-10-07T10:27:23.028Z,2.83
2022-10-07T10:30:08.671Z,2.42
2022-10-07T10:33:12.261Z,2.08
2022-10-07T10:36:02.331Z,2.47
2022-10-07T10:39:11.874Z,3.63
2022-10-07T10:41:53.571Z,2.63
2022-10-07T10:44:47.138Z,2.67
2022-10-07T10:47:43.518Z,2.88
2022-10-07T10:50:37.775Z,2.38
2022-10-07T10:53:21.513Z,2.33
2022-10-07T10:56:02.178Z,2.85
2022-10-07T10:58:58.307Z,2.20
2022-10-07T11:01:37.180Z,2.85
2022-10-07T11:04:24.580Z,2.83
2022-10-07T11:07:02.930Z,2.53
2022-10-07T11:09:44.122Z,2.67
2022-10-07T11:12:39.853Z,2.53
2022-10-07T11:15:23.430Z,2.47
2022-10-07T11:18:01.787Z,2.08
2022-10-07T11:20:48.055Z,2.58
2022-10-07T11:23:41.394Z,2.17
2022-10-07T11:26:37.743Z,1.90
2022-10-07T11:29:29.982Z,2.17
2022-10-07T11:32:45.737Z,1.98
2022-10-07T11:35:38.810Z,1.88
2022-10-07T11:38:10.612Z,2.53
2022-10-07T11:40:50.246Z,2.28
2022-10-07T11:43:38.212Z,1.95
2022-10-07T11:46:22.073Z,1.60
2022-10-07T11:49:12.891Z,1.92
2022-10-07T11:52:03.388Z,2.33
2022-10-07T11:54:45.917Z,1.80
2022-10-07T11:57:26.898Z,2.22
2022-10-07T12:00:08.719Z,3.78
2022-10-07T12:02:45.769Z,2.00
2022-10-07T12:05:36.510Z,2.83
2022-10-07T12:08:34.906Z,1.60
2022-10-07T12:11:12.817Z,1.85
2022-10-07T12:13:55.525Z,1.83
2022-10-07T12:16:30.522Z,3.00
2022-10-07T12:19:06.468Z,2.08
2022-10-07T12:21:58.041Z,2.33
2022-10-07T12:24:38.493Z,2.60
2022-10-07T12:27:27.143Z,1.90
2022-10-07T12:30:02.657Z,2.13
2022-10-07T12:32:46.897Z,1.80
2022-10-07T12:35:37.036Z,1.98
2022-10-07T12:38:26.203Z,1.95
2022-10-07T12:41:43.928Z,2.38
2022-10-07T12:44:26.745Z,2.05
2022-10-07T12:47:12.856Z,1.80
2022-10-07T12:50:17.407Z,1.45
2022-10-07T12:52:54.783Z,2.35
2022-10-07T12:55:33.985Z,2.72
2022-10-07T12:58:58.895Z,2.05
2022-10-07T13:01:59.358Z,3.40
2022-10-07T13:04:51.945Z,1.42
2022-10-07T13:08:15.835Z,2.33
2022-10-07T13:11:17.930Z,1.67
2022-10-07T13:14:11.775Z,1.88
2022-10-07T13:17:12.977Z,2.08
2022-10-07T13:20:35.149Z,2.28
2022-10-07T13:23:34.215Z,2.67
2022-10-07T13:26:07.456Z,1.77
2022-10-07T13:28:49.352Z,1.77
2022-10-07T13:31:28.944Z,1.70
2022-10-07T13:34:15.026Z,1.73
2022-10-07T13:36:46.991Z,2.25
2022-10-07T13:39:22.831Z,2.25
2022-10-07T13:41:58.971Z,1.88
2022-10-07T13:44:32.679Z,1.77
2022-10-07T13:47:07.229Z,1.77
2022-10-07T13:49:43.774Z,2.00
2022-10-07T13:52:35.851Z,1.77
2022-10-07T13:55:26.083Z,1.88
2022-10-07T13:58:02.048Z,1.80
2022-10-07T14:00:42.433Z,1.90
2022-10-07T14:05:53.254Z,1.85
2022-10-07T14:08:29.774Z,2.28
2022-10-07T14:11:10.226Z,2.85
2022-10-07T14:13:43.806Z,2.33
2022-10-07T14:16:22.257Z,1.65
2022-10-07T14:18:54.366Z,1.88
2022-10-07T14:21:28.122Z,2.20
2022-10-07T14:24:09.814Z,1.95
2022-10-07T14:26:44.019Z,2.00
2022-10-07T14:29:35.874Z,1.83
2022-10-07T14:32:37.858Z,1.42
2022-10-07T14:35:19.488Z,2.22
2022-10-07T14:37:51.416Z,2.10
2022-10-07T14:40:24.785Z,1.98
2022-10-07T14:42:57.597Z,2.50
2022-10-07T14:45:30.153Z,4.22
2022-10-07T14:48:02.129Z,2.45
2022-10-07T14:50:34.326Z,2.55
2022-10-07T14:53:06.405Z,2.20
2022-10-07T14:55:39.411Z,1.77
2022-10-07T14:58:11.818Z,2.03
2022-10-07T15:00:44.202Z,1.70
2022-10-07T15:03:23.308Z,1.75
2022-10-07T15:05:55.572Z,2.50
2022-10-07T15:08:27.493Z,1.63
2022-10-07T15:10:59.413Z,2.17
2022-10-07T15:13:31.356Z,2.28
2022-10-07T15:16:03.428Z,1.65
2022-10-07T15:18:37.830Z,2.20
2022-10-07T15:21:11.960Z,1.88
2022-10-07T15:23:45.052Z,3.42
2022-10-07T15:26:17.054Z,1.70
2022-10-07T15:28:55.293Z,2.03
2022-10-07T15:31:30.257Z,2.05
2022-10-07T15:34:02.366Z,2.05
2022-10-07T15:36:34.495Z,1.85
2022-10-07T15:39:07.053Z,1.80
2022-10-07T15:41:42.032Z,1.80
2022-10-07T15:44:20.180Z,2.60
2022-10-07T15:46:54.553Z,1.92
2022-10-07T15:49:27.229Z,1.83
2022-10-07T15:51:59.483Z,1.83
2022-10-07T15:54:32.094Z,2.22
2022-10-07T15:57:04.546Z,1.73
2022-10-07T15:59:36.690Z,2.10
2022-10-07T16:02:21.505Z,2.03
2022-10-07T16:04:53.455Z,2.28
2022-10-07T16:07:25.530Z,1.52
2022-10-07T16:09:57.531Z,1.77
2022-10-07T16:12:29.641Z,2.03
2022-10-07T16:15:03.801Z,2.25
2022-10-07T16:17:35.777Z,1.90
2022-10-07T16:20:11.341Z,1.80
2022-10-07T16:22:43.842Z,1.80
2022-10-07T16:25:16.161Z,2.35
2022-10-07T16:28:06.608Z,2.30
2022-10-07T16:30:44.077Z,4.30
2022-10-07T16:33:16.044Z,2.90
2022-10-07T16:35:48.142Z,1.88
2022-10-07T16:38:20.959Z,2.03
2022-10-07T16:40:54.442Z,2.00
2022-10-07T16:43:26.466Z,1.75
2022-10-07T16:46:03.556Z,1.75
2022-10-07T16:48:41.521Z,2.72
2022-10-07T16:51:28.695Z,1.98
2022-10-07T16:54:01.924Z,2.60
2022-10-07T16:56:35.833Z,2.30
2022-10-07T16:59:10.492Z,2.60
2022-10-07T17:01:42.575Z,1.58
2022-10-07T17:04:14.653Z,2.95
2022-10-07T17:06:47.927Z,2.58
2022-10-07T17:09:21.905Z,2.50
2022-10-07T17:11:54.027Z,2.08
2022-10-07T17:14:27.062Z,2.17
2022-10-07T17:17:00.537Z,2.25
2022-10-07T17:19:33.727Z,2.78
2022-10-07T17:22:05.674Z,2.65
2022-10-07T17:24:37.599Z,2.83
2022-10-07T17:27:09.582Z,3.38
2022-10-07T17:29:41.513Z,3.25
2022-10-07T17:32:14.574Z,3.35
2022-10-07T17:34:46.532Z,4.15
2022-10-07T17:37:18.507Z,4.57
2022-10-07T17:39:50.500Z,2.95
2022-10-07T17:42:22.445Z,3.30
2022-10-07T17:44:55.225Z,2.88
2022-10-07T17:47:27.155Z,3.40
2022-10-07T17:49:59.395Z,3.70
2022-10-07T17:52:33.970Z,2.97
2022-10-07T17:55:07.027Z,3.95
2022-10-07T17:57:39.203Z,3.08
2022-10-07T18:00:11.770Z,2.20
2022-10-07T18:02:43.874Z,2.88
2022-10-07T18:05:16.373Z,2.83
2022-10-07T18:07:48.700Z,2.53
2022-10-07T18:10:20.794Z,3.53
2022-10-07T18:13:11.592Z,2.85
2022-10-07T18:15:43.504Z,3.42
2022-10-07T18:18:15.708Z,2.55
2022-10-07T18:20:48.031Z,4.32
2022-10-07T18:23:20.402Z,3.55
2022-10-07T18:25:52.435Z,3.08
2022-10-07T18:28:25.415Z,2.80
2022-10-07T18:30:57.358Z,2.42
2022-10-07T18:33:33.819Z,3.60
2022-10-07T18:36:13.593Z,3.47
2022-10-07T18:38:46.377Z,2.97
2022-10-07T18:41:19.055Z,2.95
2022-10-07T18:43:55.987Z,2.42
2022-10-07T18:46:27.923Z,3.00
2022-10-07T18:48:59.867Z,2.60
2022-10-07T18:51:31.857Z,3.22
2022-10-07T18:54:03.993Z,2.75
2022-10-07T18:56:40.806Z,2.40
2022-10-07T18:59:13.902Z,2.95
2022-10-07T19:01:50.284Z,3.20
2022-10-07T19:04:23.025Z,3.55
2022-10-07T19:06:54.989Z,3.42
2022-10-07T19:09:27.339Z,3.47
2022-10-07T19:11:59.289Z,3.67
2022-10-07T19:14:34.533Z,3.20
2022-10-07T19:17:06.497Z,4.55
2022-10-07T19:19:41.242Z,4.03
2022-10-07T19:22:14.544Z,3.80
2022-10-07T19:25:04.817Z,3.85
2022-10-07T19:27:37.065Z,3.33
2022-10-07T19:30:09.682Z,4.78
2022-10-07T19:32:41.646Z,3.45
2022-10-07T19:35:13.729Z,3.80
2022-10-07T19:37:46.458Z,4.07
2022-10-07T19:40:18.555Z,3.53
2022-10-07T19:42:50.476Z,4.18
2022-10-07T19:45:22.591Z,4.20
2022-10-07T19:47:54.528Z,2.95
2022-10-07T19:50:26.482Z,3.38
2022-10-07T19:53:00.114Z,3.70
2022-10-07T19:55:35.392Z,4.38
2022-10-07T19:58:07.439Z,3.03
2022-10-07T20:00:39.381Z,3.45
2022-10-07T20:03:11.451Z,3.03
2022-10-07T20:05:43.853Z,4.00
2022-10-07T20:08:15.818Z,4.40
2022-10-07T20:10:47.732Z,4.13
2022-10-07T20:13:19.953Z,3.53
2022-10-07T20:15:51.868Z,3.58
2022-10-07T20:18:23.821Z,3.42
2022-10-07T20:21:15.976Z,4.18
2022-10-07T20:23:48.648Z,3.22
2022-10-07T20:26:27.669Z,3.95
2022-10-07T20:29:02.437Z,3.28
2022-10-07T20:31:40.791Z,4.72
2022-10-07T20:34:16.415Z,4.50
2022-10-07T20:36:50.429Z,3.90
2022-10-07T20:39:41.271Z,3.78
2022-10-07T20:42:22.268Z,3.92
2022-10-07T20:44:54.651Z,3.60
2022-10-07T20:47:30.612Z,3.53
2022-10-07T20:50:03.754Z,3.45
2022-10-07T20:52:37.037Z,5.15
2022-10-07T20:55:11.602Z,4.13
2022-10-07T20:57:43.676Z,4.10
2022-10-07T21:00:16.964Z,3.97
2022-10-07T21:02:49.237Z,3.13
2022-10-07T21:05:21.697Z,4.00
2022-10-07T21:07:54.840Z,4.68
2022-10-07T21:10:26.928Z,3.95
2022-10-07T21:12:59.357Z,3.35
2022-10-07T21:15:31.481Z,4.22
2022-10-07T21:18:03.398Z,4.47
2022-10-07T21:20:36.209Z,3.88
2022-10-07T21:23:08.138Z,3.75
2022-10-07T21:25:40.096Z,3.72
2022-10-07T21:28:12.138Z,3.30
2022-10-07T21:30:46.057Z,4.47
2022-10-07T21:33:17.986Z,3.05
2022-10-07T21:35:49.946Z,3.47
2022-10-07T21:38:22.350Z,3.80
2022-10-07T21:40:54.843Z,3.00
2022-10-07T21:43:28.120Z,3.53
2022-10-07T21:46:00.244Z,3.83
2022-10-07T21:48:32.353Z,6.75
2022-10-07T21:51:09.361Z,5.45
2022-10-07T21:53:41.706Z,5.70
2022-10-07T21:56:13.704Z,5.35
2022-10-07T21:58:49.579Z,4.80
2022-10-07T22:01:24.257Z,6.35
2022-10-07T22:03:59.334Z,11.13
2022-10-07T22:06:50.976Z,4.97
2022-10-07T22:09:22.903Z,3.40
2022-10-07T22:11:54.925Z,5.03
2022-10-07T22:14:27.887Z,5.18
2022-10-07T22:16:59.864Z,3.83
2022-10-07T22:19:32.914Z,3.97
2022-10-07T22:22:04.970Z,3.28
2022-10-07T22:24:36.882Z,3.45
2022-10-07T22:27:08.859Z,3.75
2022-10-07T22:29:40.738Z,5.18
2022-10-07T22:32:12.726Z,4.20
2022-10-07T22:35:03.414Z,3.42
2022-10-07T22:37:35.373Z,3.55
2022-10-07T22:40:08.132Z,3.53
2022-10-07T22:42:40.057Z,3.70
2022-10-07T22:45:12.415Z,3.05
2022-10-07T22:47:44.459Z,3.08
2022-10-07T22:50:16.812Z,4.47
2022-10-07T22:52:49.390Z,3.30
2022-10-07T22:55:21.602Z,3.20
2022-10-07T22:57:53.719Z,3.67
2022-10-07T23:00:25.632Z,3.15
2022-10-07T23:02:57.747Z,3.28
2022-10-07T23:05:29.759Z,4.20
2022-10-07T23:08:01.947Z,4.50
2022-10-07T23:10:33.870Z,3.65
2022-10-07T23:13:05.836Z,3.55
2022-10-07T23:15:37.829Z,3.97
2022-10-07T23:18:10.323Z,4.40
2022-10-07T23:20:42.205Z,4.38
2022-10-07T23:23:14.152Z,3.38
2022-10-07T23:25:47.074Z,4.00
2022-10-07T23:28:21.693Z,4.25
2022-10-07T23:30:53.801Z,3.67
2022-10-07T23:33:25.901Z,3.17
2022-10-07T23:35:58.430Z,3.83
2022-10-07T23:38:30.453Z,3.30
2022-10-07T23:41:02.619Z,3.22
2022-10-07T23:43:34.613Z,3.35
2022-10-07T23:46:14.371Z,3.25
2022-10-07T23:48:47.133Z,3.92
2022-10-07T23:51:22.726Z,3.03
2022-10-07T23:53:59.222Z,4.25
2022-10-07T23:56:32.122Z,3.60
2022-10-07T23:59:04.094Z,3.90
